sensor_id;sensor_type;location;lat;lon;timestamp;pressure;altitude;pressure_sealevel;temperature;humidity
56568;BME280;42456;49.956;20.004;2023-04-03T00:00:32;98586.93;;;1.56;86.12
56568;BME280;42456;49.956;20.004;2023-04-03T00:03:00;98587.56;;;1.54;86.07
56568;BME280;42456;49.956;20.004;2023-04-03T00:05:27;98584.13;;;1.54;86.47
56568;BME280;42456;49.956;20.004;2023-04-03T00:07:54;98591.65;;;1.54;86.14
56568;BME280;42456;49.956;20.004;2023-04-03T00:10:21;98592.13;;;1.54;86.36
56568;BME280;42456;49.956;20.004;2023-04-03T00:12:48;98586.55;;;1.54;86.05
56568;BME280;42456;49.956;20.004;2023-04-03T00:15:14;98589.52;;;1.54;86.17
56568;BME280;42456;49.956;20.004;2023-04-03T00:17:41;98587.45;;;1.51;86.15
56568;BME280;42456;49.956;20.004;2023-04-03T00:20:09;98590.20;;;1.45;86.10
56568;BME280;42456;49.956;20.004;2023-04-03T00:22:36;98590.17;;;1.39;86.49
56568;BME280;42456;49.956;20.004;2023-04-03T00:25:03;98592.67;;;1.34;86.27
56568;BME280;42456;49.956;20.004;2023-04-03T00:27:30;98593.86;;;1.29;86.31
56568;BME280;42456;49.956;20.004;2023-04-03T00:29:57;98592.06;;;1.26;86.46
56568;BME280;42456;49.956;20.004;2023-04-03T00:32:24;98595.92;;;1.26;87.18
56568;BME280;42456;49.956;20.004;2023-04-03T00:34:51;98599.73;;;1.24;86.96
56568;BME280;42456;49.956;20.004;2023-04-03T00:37:18;98600.48;;;1.23;86.92
56568;BME280;42456;49.956;20.004;2023-04-03T00:39:44;98602.48;;;1.22;87.13
56568;BME280;42456;49.956;20.004;2023-04-03T00:42:12;98603.33;;;1.21;87.25
56568;BME280;42456;49.956;20.004;2023-04-03T00:47:09;98604.27;;;1.18;87.59
56568;BME280;42456;49.956;20.004;2023-04-03T00:49:38;98605.86;;;1.17;87.22
56568;BME280;42456;49.956;20.004;2023-04-03T00:52:10;98607.88;;;1.18;87.62
56568;BME280;42456;49.956;20.004;2023-04-03T00:54:40;98607.77;;;1.18;87.46
56568;BME280;42456;49.956;20.004;2023-04-03T00:57:09;98612.16;;;1.17;87.62
56568;BME280;42456;49.956;20.004;2023-04-03T00:59:40;98612.48;;;1.17;87.50
56568;BME280;42456;49.956;20.004;2023-04-03T01:02:08;98613.54;;;1.16;87.29
56568;BME280;42456;49.956;20.004;2023-04-03T01:04:37;98614.69;;;1.14;87.30
56568;BME280;42456;49.956;20.004;2023-04-03T01:07:15;98615.48;;;1.11;87.90
56568;BME280;42456;49.956;20.004;2023-04-03T01:09:43;98619.38;;;1.06;87.37
56568;BME280;42456;49.956;20.004;2023-04-03T01:12:22;98620.48;;;1.02;87.58
56568;BME280;42456;49.956;20.004;2023-04-03T01:15:04;98620.21;;;0.99;87.61
56568;BME280;42456;49.956;20.004;2023-04-03T01:17:36;98625.75;;;0.97;87.85
56568;BME280;42456;49.956;20.004;2023-04-03T01:25:20;98628.73;;;0.91;87.77
56568;BME280;42456;49.956;20.004;2023-04-03T01:27:46;98633.33;;;0.89;87.59
56568;BME280;42456;49.956;20.004;2023-04-03T01:30:16;98633.05;;;0.85;87.91
56568;BME280;42456;49.956;20.004;2023-04-03T01:32:44;98635.41;;;0.81;87.56
56568;BME280;42456;49.956;20.004;2023-04-03T01:35:11;98634.80;;;0.77;87.78
56568;BME280;42456;49.956;20.004;2023-04-03T01:37:38;98639.94;;;0.76;88.25
56568;BME280;42456;49.956;20.004;2023-04-03T01:40:05;98639.73;;;0.75;87.42
56568;BME280;42456;49.956;20.004;2023-04-03T01:42:33;98641.14;;;0.74;87.62
56568;BME280;42456;49.956;20.004;2023-04-03T01:45:00;98639.12;;;0.70;87.68
56568;BME280;42456;49.956;20.004;2023-04-03T01:47:27;98643.44;;;0.69;88.20
56568;BME280;42456;49.956;20.004;2023-04-03T01:49:53;98644.90;;;0.66;87.97
56568;BME280;42456;49.956;20.004;2023-04-03T01:52:20;98649.48;;;0.63;87.99
56568;BME280;42456;49.956;20.004;2023-04-03T01:54:47;98648.58;;;0.62;88.51
56568;BME280;42456;49.956;20.004;2023-04-03T01:57:14;98643.92;;;0.60;88.31
56568;BME280;42456;49.956;20.004;2023-04-03T01:59:41;98646.25;;;0.61;88.31
56568;BME280;42456;49.956;20.004;2023-04-03T02:02:08;98648.33;;;0.63;88.40
56568;BME280;42456;49.956;20.004;2023-04-03T02:04:35;98646.58;;;0.62;88.57
56568;BME280;42456;49.956;20.004;2023-04-03T02:07:02;98650.59;;;0.61;88.35
56568;BME280;42456;49.956;20.004;2023-04-03T02:09:29;98650.70;;;0.61;88.49
56568;BME280;42456;49.956;20.004;2023-04-03T02:11:56;98651.70;;;0.62;88.19
56568;BME280;42456;49.956;20.004;2023-04-03T02:14:22;98653.61;;;0.61;89.06
56568;BME280;42456;49.956;20.004;2023-04-03T02:16:50;98652.54;;;0.60;88.76
56568;BME280;42456;49.956;20.004;2023-04-03T02:19:17;98654.33;;;0.59;89.07
56568;BME280;42456;49.956;20.004;2023-04-03T02:21:44;98650.52;;;0.57;88.50
56568;BME280;42456;49.956;20.004;2023-04-03T02:24:11;98654.75;;;0.59;88.62
56568;BME280;42456;49.956;20.004;2023-04-03T02:26:37;98655.23;;;0.60;89.23
56568;BME280;42456;49.956;20.004;2023-04-03T02:29:04;98655.85;;;0.62;88.78
56568;BME280;42456;49.956;20.004;2023-04-03T02:31:31;98656.38;;;0.62;88.62
56568;BME280;42456;49.956;20.004;2023-04-03T02:33:58;98661.13;;;0.62;89.22
56568;BME280;42456;49.956;20.004;2023-04-03T02:36:25;98662.34;;;0.61;88.69
56568;BME280;42456;49.956;20.004;2023-04-03T02:38:51;98664.24;;;0.60;88.86
56568;BME280;42456;49.956;20.004;2023-04-03T02:41:18;98659.58;;;0.60;88.93
56568;BME280;42456;49.956;20.004;2023-04-03T02:43:45;98666.31;;;0.62;89.20
56568;BME280;42456;49.956;20.004;2023-04-03T02:46:12;98664.69;;;0.63;88.62
56568;BME280;42456;49.956;20.004;2023-04-03T02:48:41;98666.64;;;0.63;88.43
56568;BME280;42456;49.956;20.004;2023-04-03T02:51:08;98669.14;;;0.64;88.92
56568;BME280;42456;49.956;20.004;2023-04-03T02:53:35;98670.58;;;0.64;89.01
56568;BME280;42456;49.956;20.004;2023-04-03T02:56:01;98674.73;;;0.63;88.92
56568;BME280;42456;49.956;20.004;2023-04-03T02:58:28;98674.52;;;0.61;88.75
56568;BME280;42456;49.956;20.004;2023-04-03T03:00:55;98675.09;;;0.60;89.01
56568;BME280;42456;49.956;20.004;2023-04-03T03:03:22;98678.83;;;0.57;88.89
56568;BME280;42456;49.956;20.004;2023-04-03T03:05:49;98676.11;;;0.55;89.00
56568;BME280;42456;49.956;20.004;2023-04-03T03:08:16;98676.11;;;0.54;88.78
56568;BME280;42456;49.956;20.004;2023-04-03T03:10:46;98678.87;;;0.56;88.76
56568;BME280;42456;49.956;20.004;2023-04-03T03:13:13;98675.70;;;0.56;88.51
56568;BME280;42456;49.956;20.004;2023-04-03T03:15:40;98673.85;;;0.56;88.89
56568;BME280;42456;49.956;20.004;2023-04-03T03:18:06;98679.55;;;0.56;88.98
56568;BME280;42456;49.956;20.004;2023-04-03T03:20:33;98678.59;;;0.54;88.66
56568;BME280;42456;49.956;20.004;2023-04-03T03:23:01;98680.38;;;0.52;89.16
56568;BME280;42456;49.956;20.004;2023-04-03T03:25:28;98677.43;;;0.48;89.01
56568;BME280;42456;49.956;20.004;2023-04-03T03:27:54;98678.59;;;0.46;88.91
56568;BME280;42456;49.956;20.004;2023-04-03T03:30:21;98681.50;;;0.45;88.78
56568;BME280;42456;49.956;20.004;2023-04-03T03:32:48;98682.23;;;0.45;88.91
56568;BME280;42456;49.956;20.004;2023-04-03T03:35:15;98681.59;;;0.45;89.02
56568;BME280;42456;49.956;20.004;2023-04-03T03:37:42;98682.66;;;0.46;89.02
56568;BME280;42456;49.956;20.004;2023-04-03T03:40:10;98680.86;;;0.46;89.03
56568;BME280;42456;49.956;20.004;2023-04-03T03:42:39;98682.28;;;0.45;88.65
56568;BME280;42456;49.956;20.004;2023-04-03T03:45:06;98683.55;;;0.44;89.01
56568;BME280;42456;49.956;20.004;2023-04-03T03:47:34;98686.08;;;0.42;88.89
56568;BME280;42456;49.956;20.004;2023-04-03T03:50:01;98692.09;;;0.41;89.03
56568;BME280;42456;49.956;20.004;2023-04-03T03:52:28;98689.76;;;0.39;88.64
56568;BME280;42456;49.956;20.004;2023-04-03T03:54:56;98692.41;;;0.39;89.05
56568;BME280;42456;49.956;20.004;2023-04-03T03:57:23;98695.90;;;0.41;89.27
56568;BME280;42456;49.956;20.004;2023-04-03T03:59:50;98695.63;;;0.41;88.61
56568;BME280;42456;49.956;20.004;2023-04-03T04:02:18;98701.88;;;0.41;88.67
56568;BME280;42456;49.956;20.004;2023-04-03T04:04:45;98704.71;;;0.37;88.88
56568;BME280;42456;49.956;20.004;2023-04-03T04:07:12;98709.08;;;0.34;88.90
56568;BME280;42456;49.956;20.004;2023-04-03T04:09:39;98706.62;;;0.31;89.00
56568;BME280;42456;49.956;20.004;2023-04-03T04:12:06;98704.29;;;0.31;89.15
56568;BME280;42456;49.956;20.004;2023-04-03T04:14:33;98707.77;;;0.30;89.35
56568;BME280;42456;49.956;20.004;2023-04-03T04:17:00;98707.25;;;0.30;89.25
56568;BME280;42456;49.956;20.004;2023-04-03T04:19:29;98705.23;;;0.28;89.62
56568;BME280;42456;49.956;20.004;2023-04-03T04:21:55;98708.33;;;0.27;89.38
56568;BME280;42456;49.956;20.004;2023-04-03T04:24:22;98712.27;;;0.29;89.59
56568;BME280;42456;49.956;20.004;2023-04-03T04:26:49;98709.00;;;0.31;89.00
56568;BME280;42456;49.956;20.004;2023-04-03T04:29:16;98713.28;;;0.32;88.98
56568;BME280;42456;49.956;20.004;2023-04-03T04:31:43;98711.33;;;0.32;89.14
56568;BME280;42456;49.956;20.004;2023-04-03T04:34:10;98709.32;;;0.31;89.08
56568;BME280;42456;49.956;20.004;2023-04-03T04:36:36;98714.98;;;0.31;89.17
56568;BME280;42456;49.956;20.004;2023-04-03T04:39:03;98715.13;;;0.29;89.14
56568;BME280;42456;49.956;20.004;2023-04-03T04:41:31;98720.22;;;0.26;88.64
56568;BME280;42456;49.956;20.004;2023-04-03T04:43:58;98722.04;;;0.22;88.80
56568;BME280;42456;49.956;20.004;2023-04-03T04:46:25;98724.95;;;0.22;88.98
56568;BME280;42456;49.956;20.004;2023-04-03T04:48:51;98727.91;;;0.22;88.79
56568;BME280;42456;49.956;20.004;2023-04-03T04:51:18;98730.13;;;0.21;88.92
56568;BME280;42456;49.956;20.004;2023-04-03T04:53:45;98734.86;;;0.18;88.75
56568;BME280;42456;49.956;20.004;2023-04-03T04:56:12;98732.98;;;0.15;89.12
56568;BME280;42456;49.956;20.004;2023-04-03T04:58:39;98741.29;;;0.11;88.81
56568;BME280;42456;49.956;20.004;2023-04-03T05:01:08;98743.56;;;0.11;88.66
56568;BME280;42456;49.956;20.004;2023-04-03T05:03:35;98737.38;;;0.11;88.67
56568;BME280;42456;49.956;20.004;2023-04-03T05:06:03;98749.17;;;0.12;88.45
56568;BME280;42456;49.956;20.004;2023-04-03T05:08:31;98751.02;;;0.10;88.16
56568;BME280;42456;49.956;20.004;2023-04-03T05:10:58;98749.79;;;0.08;88.12
56568;BME280;42456;49.956;20.004;2023-04-03T05:13:25;98749.36;;;0.09;88.13
56568;BME280;42456;49.956;20.004;2023-04-03T05:15:52;98755.27;;;0.06;88.25
56568;BME280;42456;49.956;20.004;2023-04-03T05:18:18;98754.30;;;0.04;88.05
56568;BME280;42456;49.956;20.004;2023-04-03T05:20:48;98755.19;;;0.04;88.09
56568;BME280;42456;49.956;20.004;2023-04-03T05:23:17;98757.67;;;0.05;88.21
56568;BME280;42456;49.956;20.004;2023-04-03T05:25:44;98759.74;;;0.04;88.22
56568;BME280;42456;49.956;20.004;2023-04-03T05:28:11;98756.31;;;0.06;88.13
56568;BME280;42456;49.956;20.004;2023-04-03T05:30:39;98758.50;;;0.08;88.05
56568;BME280;42456;49.956;20.004;2023-04-03T05:33:06;98761.27;;;0.09;88.52
56568;BME280;42456;49.956;20.004;2023-04-03T05:35:35;98768.05;;;0.11;88.39
56568;BME280;42456;49.956;20.004;2023-04-03T05:38:03;98766.26;;;0.11;88.00
56568;BME280;42456;49.956;20.004;2023-04-03T05:40:30;98768.16;;;0.11;88.39
56568;BME280;42456;49.956;20.004;2023-04-03T05:42:57;98771.38;;;0.10;88.14
56568;BME280;42456;49.956;20.004;2023-04-03T05:45:24;98771.15;;;0.09;87.94
56568;BME280;42456;49.956;20.004;2023-04-03T05:47:51;98771.33;;;0.10;88.13
56568;BME280;42456;49.956;20.004;2023-04-03T05:50:18;98773.67;;;0.12;88.09
56568;BME280;42456;49.956;20.004;2023-04-03T05:52:47;98777.04;;;0.15;88.04
56568;BME280;42456;49.956;20.004;2023-04-03T05:55:15;98779.90;;;0.16;88.10
56568;BME280;42456;49.956;20.004;2023-04-03T05:57:42;98778.20;;;0.15;88.03
56568;BME280;42456;49.956;20.004;2023-04-03T06:00:12;98776.09;;;0.15;88.10
56568;BME280;42456;49.956;20.004;2023-04-03T06:02:42;98779.64;;;0.17;87.74
56568;BME280;42456;49.956;20.004;2023-04-03T06:05:09;98785.07;;;0.20;88.10
56568;BME280;42456;49.956;20.004;2023-04-03T06:07:38;98789.29;;;0.19;87.86
56568;BME280;42456;49.956;20.004;2023-04-03T06:10:06;98789.65;;;0.17;88.10
56568;BME280;42456;49.956;20.004;2023-04-03T06:12:33;98797.23;;;0.19;87.80
56568;BME280;42456;49.956;20.004;2023-04-03T06:15:00;98793.11;;;0.19;87.60
56568;BME280;42456;49.956;20.004;2023-04-03T06:17:27;98795.39;;;0.20;87.96
56568;BME280;42456;49.956;20.004;2023-04-03T06:19:55;98799.17;;;0.23;87.87
56568;BME280;42456;49.956;20.004;2023-04-03T06:22:22;98803.17;;;0.21;87.10
56568;BME280;42456;49.956;20.004;2023-04-03T06:24:52;98800.92;;;0.18;86.55
56568;BME280;42456;49.956;20.004;2023-04-03T06:27:19;98805.09;;;0.13;86.84
56568;BME280;42456;49.956;20.004;2023-04-03T06:29:46;98804.52;;;0.08;86.35
56568;BME280;42456;49.956;20.004;2023-04-03T06:32:13;98807.13;;;0.09;86.55
56568;BME280;42456;49.956;20.004;2023-04-03T06:34:40;98809.90;;;0.12;86.71
56568;BME280;42456;49.956;20.004;2023-04-03T06:37:26;98811.61;;;0.14;86.18
56568;BME280;42456;49.956;20.004;2023-04-03T06:39:55;98817.48;;;0.19;86.03
56568;BME280;42456;49.956;20.004;2023-04-03T06:42:23;98825.57;;;0.22;85.44
56568;BME280;42456;49.956;20.004;2023-04-03T06:44:50;98821.01;;;0.26;85.36
56568;BME280;42456;49.956;20.004;2023-04-03T06:47:17;98823.58;;;0.34;85.65
56568;BME280;42456;49.956;20.004;2023-04-03T06:49:44;98830.84;;;0.41;85.41
56568;BME280;42456;49.956;20.004;2023-04-03T06:52:11;98829.91;;;0.48;84.97
56568;BME280;42456;49.956;20.004;2023-04-03T06:54:39;98834.73;;;0.54;85.10
56568;BME280;42456;49.956;20.004;2023-04-03T06:57:07;98829.55;;;0.61;83.53
56568;BME280;42456;49.956;20.004;2023-04-03T06:59:35;98830.14;;;0.67;84.27
56568;BME280;42456;49.956;20.004;2023-04-03T07:02:03;98837.48;;;0.70;82.64
56568;BME280;42456;49.956;20.004;2023-04-03T07:04:31;98837.22;;;0.72;82.04
56568;BME280;42456;49.956;20.004;2023-04-03T07:06:58;98833.08;;;0.76;80.98
56568;BME280;42456;49.956;20.004;2023-04-03T07:09:25;98839.84;;;0.81;80.81
56568;BME280;42456;49.956;20.004;2023-04-03T07:11:52;98839.52;;;0.87;80.59
56568;BME280;42456;49.956;20.004;2023-04-03T07:14:19;98838.89;;;0.92;80.69
56568;BME280;42456;49.956;20.004;2023-04-03T07:16:48;98840.66;;;0.98;80.90
56568;BME280;42456;49.956;20.004;2023-04-03T07:19:15;98847.27;;;1.01;80.51
56568;BME280;42456;49.956;20.004;2023-04-03T07:21:42;98852.59;;;0.96;78.35
56568;BME280;42456;49.956;20.004;2023-04-03T07:24:10;98848.09;;;0.92;79.16
56568;BME280;42456;49.956;20.004;2023-04-03T07:26:42;98851.59;;;0.98;80.01
56568;BME280;42456;49.956;20.004;2023-04-03T07:29:09;98853.56;;;1.06;80.73
56568;BME280;42456;49.956;20.004;2023-04-03T07:31:36;98861.41;;;1.16;80.56
56568;BME280;42456;49.956;20.004;2023-04-03T07:34:05;98868.08;;;1.20;78.76
56568;BME280;42456;49.956;20.004;2023-04-03T07:36:32;98866.43;;;1.20;78.15
56568;BME280;42456;49.956;20.004;2023-04-03T07:39:00;98867.55;;;1.21;77.80
56568;BME280;42456;49.956;20.004;2023-04-03T07:41:27;98870.16;;;1.23;77.71
56568;BME280;42456;49.956;20.004;2023-04-03T07:43:55;98879.34;;;1.32;77.58
56568;BME280;42456;49.956;20.004;2023-04-03T07:46:23;98874.14;;;1.45;76.31
56568;BME280;42456;49.956;20.004;2023-04-03T07:48:50;98873.77;;;1.64;76.22
56568;BME280;42456;49.956;20.004;2023-04-03T07:51:17;98877.80;;;1.82;75.86
56568;BME280;42456;49.956;20.004;2023-04-03T07:53:44;98878.16;;;2.00;75.13
56568;BME280;42456;49.956;20.004;2023-04-03T07:56:11;98881.77;;;2.11;74.96
56568;BME280;42456;49.956;20.004;2023-04-03T07:58:38;98884.23;;;2.08;72.70
56568;BME280;42456;49.956;20.004;2023-04-03T08:01:05;98883.05;;;2.01;73.30
56568;BME280;42456;49.956;20.004;2023-04-03T08:03:32;98881.87;;;1.98;73.52
56568;BME280;42456;49.956;20.004;2023-04-03T08:06:04;98881.07;;;2.00;73.71
56568;BME280;42456;49.956;20.004;2023-04-03T08:08:33;98886.27;;;2.08;73.70
56568;BME280;42456;49.956;20.004;2023-04-03T08:11:01;98892.07;;;2.12;71.85
56568;BME280;42456;49.956;20.004;2023-04-03T08:13:29;98890.91;;;2.17;72.89
56568;BME280;42456;49.956;20.004;2023-04-03T08:15:57;98888.27;;;2.19;72.01
56568;BME280;42456;49.956;20.004;2023-04-03T08:18:25;98891.00;;;2.24;71.31
56568;BME280;42456;49.956;20.004;2023-04-03T08:20:53;98891.27;;;2.27;70.93
56568;BME280;42456;49.956;20.004;2023-04-03T08:23:20;98893.59;;;2.35;71.33
56568;BME280;42456;49.956;20.004;2023-04-03T08:25:47;98895.66;;;2.37;71.16
56568;BME280;42456;49.956;20.004;2023-04-03T08:28:14;98893.32;;;2.35;71.85
56568;BME280;42456;49.956;20.004;2023-04-03T08:30:42;98895.08;;;2.38;72.08
56568;BME280;42456;49.956;20.004;2023-04-03T08:33:09;98893.55;;;2.39;71.45
56568;BME280;42456;49.956;20.004;2023-04-03T08:35:40;98891.97;;;2.29;71.65
56568;BME280;42456;49.956;20.004;2023-04-03T08:38:09;98898.66;;;2.17;71.16
56568;BME280;42456;49.956;20.004;2023-04-03T08:40:37;98909.34;;;1.97;70.94
56568;BME280;42456;49.956;20.004;2023-04-03T08:43:24;98907.66;;;1.83;71.30
56568;BME280;42456;49.956;20.004;2023-04-03T08:45:55;98907.35;;;1.73;71.93
56568;BME280;42456;49.956;20.004;2023-04-03T08:48:31;98909.45;;;1.69;72.75
56568;BME280;42456;49.956;20.004;2023-04-03T08:51:08;98908.67;;;1.57;71.63
56568;BME280;42456;49.956;20.004;2023-04-03T08:53:42;98909.70;;;1.43;71.13
56568;BME280;42456;49.956;20.004;2023-04-03T08:56:12;98906.16;;;1.32;72.55
56568;BME280;42456;49.956;20.004;2023-04-03T08:58:47;98907.59;;;1.26;73.20
56568;BME280;42456;49.956;20.004;2023-04-03T09:01:23;98914.91;;;1.19;73.93
56568;BME280;42456;49.956;20.004;2023-04-03T09:03:51;98916.30;;;1.16;73.76
56568;BME280;42456;49.956;20.004;2023-04-03T09:06:25;98916.40;;;1.14;73.72
56568;BME280;42456;49.956;20.004;2023-04-03T09:14:39;98923.98;;;1.10;74.73
56568;BME280;42456;49.956;20.004;2023-04-03T09:20:01;98936.79;;;1.08;75.25
56568;BME280;42456;49.956;20.004;2023-04-03T09:22:32;98939.16;;;1.02;75.09
56568;BME280;42456;49.956;20.004;2023-04-03T09:25:15;98940.63;;;0.99;75.56
56568;BME280;42456;49.956;20.004;2023-04-03T09:27:43;98947.41;;;0.95;75.59
56568;BME280;42456;49.956;20.004;2023-04-03T09:30:15;98949.35;;;0.93;76.02
56568;BME280;42456;49.956;20.004;2023-04-03T09:32:45;98950.77;;;0.97;77.08
56568;BME280;42456;49.956;20.004;2023-04-03T09:35:23;98954.40;;;0.99;76.67
56568;BME280;42456;49.956;20.004;2023-04-03T09:40:41;98962.40;;;0.89;76.27
56568;BME280;42456;49.956;20.004;2023-04-03T09:43:26;98963.15;;;0.80;76.20
56568;BME280;42456;49.956;20.004;2023-04-03T09:45:54;98972.63;;;0.79;76.47
56568;BME280;42456;49.956;20.004;2023-04-03T09:48:25;98971.05;;;0.77;76.25
56568;BME280;42456;49.956;20.004;2023-04-03T09:50:57;98972.36;;;0.74;76.50
56568;BME280;42456;49.956;20.004;2023-04-03T09:58:46;98979.70;;;0.60;77.21
56568;BME280;42456;49.956;20.004;2023-04-03T10:04:20;98983.89;;;0.70;78.10
56568;BME280;42456;49.956;20.004;2023-04-03T10:06:53;98991.17;;;0.76;78.05
56568;BME280;42456;49.956;20.004;2023-04-03T10:09:25;98983.73;;;0.74;77.60
56568;BME280;42456;49.956;20.004;2023-04-03T10:12:07;98992.65;;;0.67;78.00
56568;BME280;42456;49.956;20.004;2023-04-03T10:14:41;98991.42;;;0.66;78.78
56568;BME280;42456;49.956;20.004;2023-04-03T10:20:01;98992.56;;;0.78;78.97
56568;BME280;42456;49.956;20.004;2023-04-03T10:22:40;98990.08;;;0.87;79.38
56568;BME280;42456;49.956;20.004;2023-04-03T10:25:45;98989.86;;;0.91;79.84
56568;BME280;42456;49.956;20.004;2023-04-03T10:28:10;98990.77;;;0.97;78.97
56568;BME280;42456;49.956;20.004;2023-04-03T10:30:49;98996.56;;;0.95;78.50
56568;BME280;42456;49.956;20.004;2023-04-03T10:41:20;98998.54;;;0.72;76.89
56568;BME280;42456;49.956;20.004;2023-04-03T10:44:03;98999.27;;;0.76;76.80
56568;BME280;42456;49.956;20.004;2023-04-03T10:46:47;98995.92;;;0.84;77.42
56568;BME280;42456;49.956;20.004;2023-04-03T10:49:29;98998.06;;;0.92;76.84
56568;BME280;42456;49.956;20.004;2023-04-03T10:57:41;98994.38;;;1.13;76.27
56568;BME280;42456;49.956;20.004;2023-04-03T11:00:21;98989.51;;;1.15;75.80
56568;BME280;42456;49.956;20.004;2023-04-03T11:02:56;98990.75;;;1.16;74.90
56568;BME280;42456;49.956;20.004;2023-04-03T11:11:00;98995.38;;;1.30;74.43
56568;BME280;42456;49.956;20.004;2023-04-03T11:13:36;98992.65;;;1.33;74.06
56568;BME280;42456;49.956;20.004;2023-04-03T11:16:08;98991.80;;;1.33;74.00
56568;BME280;42456;49.956;20.004;2023-04-03T11:24:05;99001.94;;;1.58;73.32
56568;BME280;42456;49.956;20.004;2023-04-03T11:26:40;98998.36;;;1.68;73.65
56568;BME280;42456;49.956;20.004;2023-04-03T11:29:14;98997.12;;;1.72;73.35
56568;BME280;42456;49.956;20.004;2023-04-03T11:34:56;99001.53;;;1.81;71.61
56568;BME280;42456;49.956;20.004;2023-04-03T11:37:35;99001.64;;;1.81;72.14
56568;BME280;42456;49.956;20.004;2023-04-03T11:43:03;98991.10;;;2.00;72.67
56568;BME280;42456;49.956;20.004;2023-04-03T11:45:35;98987.63;;;2.12;72.89
56568;BME280;42456;49.956;20.004;2023-04-03T11:48:41;98982.05;;;2.31;72.89
56568;BME280;42456;49.956;20.004;2023-04-03T11:50:54;98983.48;;;2.42;70.72
56568;BME280;42456;49.956;20.004;2023-04-03T11:53:33;98979.69;;;2.45;69.87
56568;BME280;42456;49.956;20.004;2023-04-03T12:01:47;98984.04;;;2.45;69.14
56568;BME280;42456;49.956;20.004;2023-04-03T12:04:16;98983.73;;;2.47;68.35
56568;BME280;42456;49.956;20.004;2023-04-03T12:11:55;98977.81;;;2.72;68.07
56568;BME280;42456;49.956;20.004;2023-04-03T12:14:24;98972.94;;;2.75;66.40
56568;BME280;42456;49.956;20.004;2023-04-03T12:16:56;98968.84;;;2.73;65.44
56568;BME280;42456;49.956;20.004;2023-04-03T12:19:33;98969.31;;;2.72;67.12
56568;BME280;42456;49.956;20.004;2023-04-03T12:22:13;98969.36;;;2.71;67.44
56568;BME280;42456;49.956;20.004;2023-04-03T12:24:49;98986.84;;;2.72;66.81
56568;BME280;42456;49.956;20.004;2023-04-03T12:30:04;98986.00;;;2.62;63.51
56568;BME280;42456;49.956;20.004;2023-04-03T12:35:37;98976.55;;;2.59;64.44
56568;BME280;42456;49.956;20.004;2023-04-03T12:38:30;98980.35;;;2.53;65.15
56568;BME280;42456;49.956;20.004;2023-04-03T12:41:17;98982.02;;;2.57;63.70
56568;BME280;42456;49.956;20.004;2023-04-03T12:46:24;98977.33;;;2.70;65.16
56568;BME280;42456;49.956;20.004;2023-04-03T12:49:01;98988.70;;;2.73;62.68
56568;BME280;42456;49.956;20.004;2023-04-03T12:51:40;98991.17;;;2.64;61.05
56568;BME280;42456;49.956;20.004;2023-04-03T12:54:23;98991.79;;;2.60;60.14
56568;BME280;42456;49.956;20.004;2023-04-03T12:59:54;98978.25;;;2.77;61.46
56568;BME280;42456;49.956;20.004;2023-04-03T13:02:26;98981.06;;;2.91;61.36
56568;BME280;42456;49.956;20.004;2023-04-03T13:04:59;98992.55;;;3.01;61.35
56568;BME280;42456;49.956;20.004;2023-04-03T13:07:33;98987.25;;;3.02;59.61
56568;BME280;42456;49.956;20.004;2023-04-03T13:12:44;98984.35;;;3.11;60.13
56568;BME280;42456;49.956;20.004;2023-04-03T13:15:18;98988.60;;;3.04;59.18
56568;BME280;42456;49.956;20.004;2023-04-03T13:17:46;98982.50;;;2.97;60.22
56568;BME280;42456;49.956;20.004;2023-04-03T13:22:57;98976.62;;;2.80;59.54
56568;BME280;42456;49.956;20.004;2023-04-03T13:25:28;98974.10;;;2.72;59.11
56568;BME280;42456;49.956;20.004;2023-04-03T13:27:58;98975.58;;;2.71;60.15
56568;BME280;42456;49.956;20.004;2023-04-03T13:30:40;98984.36;;;2.75;60.14
56568;BME280;42456;49.956;20.004;2023-04-03T13:33:22;98980.22;;;2.75;57.37
56568;BME280;42456;49.956;20.004;2023-04-03T13:36:00;98979.15;;;2.75;58.40
56568;BME280;42456;49.956;20.004;2023-04-03T13:38:30;98977.32;;;2.81;59.76
56568;BME280;42456;49.956;20.004;2023-04-03T13:41:05;98988.81;;;2.86;58.33
56568;BME280;42456;49.956;20.004;2023-04-03T13:43:48;98990.52;;;2.92;57.83
56568;BME280;42456;49.956;20.004;2023-04-03T13:48:51;98982.79;;;3.01;58.09
56568;BME280;42456;49.956;20.004;2023-04-03T13:51:24;98981.06;;;3.10;57.91
56568;BME280;42456;49.956;20.004;2023-04-03T13:53:56;98985.91;;;3.15;57.20
56568;BME280;42456;49.956;20.004;2023-04-03T13:56:32;98979.20;;;3.13;56.90
56568;BME280;42456;49.956;20.004;2023-04-03T13:59:02;98974.95;;;3.13;57.11
56568;BME280;42456;49.956;20.004;2023-04-03T14:01:40;98970.38;;;3.14;57.16
56568;BME280;42456;49.956;20.004;2023-04-03T14:04:16;98981.65;;;3.23;57.92
56568;BME280;42456;49.956;20.004;2023-04-03T14:06:44;98976.98;;;3.27;56.78
56568;BME280;42456;49.956;20.004;2023-04-03T14:09:11;98978.27;;;3.28;56.61
56568;BME280;42456;49.956;20.004;2023-04-03T14:11:39;98978.27;;;3.30;56.76
56568;BME280;42456;49.956;20.004;2023-04-03T14:14:22;98979.75;;;3.34;57.36
56568;BME280;42456;49.956;20.004;2023-04-03T14:17:02;98977.21;;;3.36;56.80
56568;BME280;42456;49.956;20.004;2023-04-03T14:19:33;98974.33;;;3.32;56.25
56568;BME280;42456;49.956;20.004;2023-04-03T14:22:06;98973.64;;;3.29;56.68
56568;BME280;42456;49.956;20.004;2023-04-03T14:24:37;98979.06;;;3.27;56.30
56568;BME280;42456;49.956;20.004;2023-04-03T14:27:16;98977.09;;;3.24;56.20
56568;BME280;42456;49.956;20.004;2023-04-03T14:29:44;98974.21;;;3.18;56.60
56568;BME280;42456;49.956;20.004;2023-04-03T14:32:13;98980.20;;;3.14;56.62
56568;BME280;42456;49.956;20.004;2023-04-03T14:34:42;98974.09;;;3.08;56.11
56568;BME280;42456;49.956;20.004;2023-04-03T14:37:16;98968.08;;;3.07;57.27
56568;BME280;42456;49.956;20.004;2023-04-03T14:39:45;98964.63;;;3.09;57.04
56568;BME280;42456;49.956;20.004;2023-04-03T14:42:16;98958.89;;;3.13;58.32
56568;BME280;42456;49.956;20.004;2023-04-03T14:44:43;98958.11;;;3.20;58.92